createdAt,value
2023-01-21T00:02:15.948Z,87.30
2023-01-21T00:04:42.818Z,87.40
2023-01-21T00:07:09.587Z,87.40
2023-01-21T00:09:36.377Z,87.90
2023-01-21T00:12:03.744Z,87.40
2023-01-21T00:14:30.927Z,87.40
2023-01-21T00:16:58.284Z,87.50
2023-01-21T00:19:25.731Z,87.50
2023-01-21T00:21:52.511Z,87.60
2023-01-21T00:24:19.255Z,87.70
2023-01-21T00:26:46.054Z,87.70
2023-01-21T00:29:12.800Z,87.70
2023-01-21T00:31:39.719Z,87.70
2023-01-21T00:34:06.646Z,87.70
2023-01-21T00:36:33.426Z,87.70
2023-01-21T00:39:00.391Z,88.20
2023-01-21T00:41:27.284Z,87.70
2023-01-21T00:43:54.064Z,87.80
2023-01-21T00:46:20.969Z,87.90
2023-01-21T00:48:47.961Z,87.90
2023-01-21T00:51:14.801Z,88.00
2023-01-21T00:53:44.571Z,88.50
2023-01-21T00:56:12.691Z,88.00
2023-01-21T00:58:40.073Z,88.50
2023-01-21T01:01:15.007Z,88.00
2023-01-21T01:03:42.075Z,88.10
2023-01-21T01:06:16.943Z,88.10
2023-01-21T01:08:44.250Z,88.10
2023-01-21T01:11:11.456Z,88.10
2023-01-21T01:13:38.240Z,88.20
2023-01-21T01:16:05.521Z,88.20
2023-01-21T01:18:33.619Z,88.20
2023-01-21T01:21:00.667Z,88.30
2023-01-21T01:23:27.596Z,88.30
2023-01-21T01:26:05.129Z,88.30
2023-01-21T01:28:32.066Z,88.40
2023-01-21T01:30:59.172Z,88.30
2023-01-21T01:33:26.503Z,88.30
2023-01-21T01:35:53.398Z,88.20
2023-01-21T01:38:21.600Z,88.30
2023-01-21T01:40:49.334Z,88.30
2023-01-21T01:43:24.747Z,88.40
2023-01-21T01:45:51.581Z,88.40
2023-01-21T01:48:27.622Z,88.40
2023-01-21T01:50:55.726Z,88.50
2023-01-21T01:53:22.563Z,88.40
2023-01-21T01:55:49.371Z,88.40
2023-01-21T01:58:16.397Z,88.40
2023-01-21T02:00:43.197Z,89.00
2023-01-21T02:03:28.626Z,88.60
2023-01-21T02:05:55.466Z,88.90
2023-01-21T02:08:23.122Z,89.10
2023-01-21T02:10:49.898Z,89.00
2023-01-21T02:13:16.676Z,89.10
2023-01-21T02:15:58.923Z,89.60
2023-01-21T02:18:46.751Z,89.30
2023-01-21T02:21:32.437Z,89.40
2023-01-21T02:24:33.665Z,89.70
2023-01-21T02:27:15.524Z,89.80
2023-01-21T02:29:45.092Z,89.70
2023-01-21T02:32:20.695Z,89.70
2023-01-21T02:35:09.880Z,89.80
2023-01-21T02:38:08.207Z,89.90
2023-01-21T02:40:50.144Z,89.80
2023-01-21T02:43:44.942Z,89.80
2023-01-21T02:46:22.902Z,89.90
2023-01-21T02:48:56.855Z,89.80
2023-01-21T02:51:24.003Z,89.80
2023-01-21T02:53:50.764Z,90.10
2023-01-21T02:56:26.909Z,90.00
2023-01-21T02:58:59.405Z,90.00
2023-01-21T03:01:28.806Z,90.00
2023-01-21T03:04:30.863Z,90.40
2023-01-21T03:07:27.751Z,90.20
2023-01-21T03:09:57.051Z,90.20
2023-01-21T03:12:38.922Z,90.30
2023-01-21T03:15:30.865Z,90.40
2023-01-21T03:18:18.433Z,90.40
2023-01-21T03:20:47.887Z,90.50
2023-01-21T03:23:32.700Z,90.50
2023-01-21T03:25:59.633Z,90.60
2023-01-21T03:28:27.528Z,90.60
2023-01-21T03:30:57.764Z,90.70
2023-01-21T03:33:24.635Z,90.70
2023-01-21T03:35:51.516Z,91.00
2023-01-21T03:38:31.389Z,90.80
2023-01-21T03:41:12.476Z,90.80
2023-01-21T03:43:39.296Z,90.80
2023-01-21T03:46:21.910Z,90.80
2023-01-21T03:48:49.511Z,91.10
2023-01-21T03:51:20.057Z,90.90
2023-01-21T03:53:51.186Z,90.90
2023-01-21T03:56:17.946Z,91.00
2023-01-21T03:58:44.846Z,91.00
2023-01-21T04:01:11.892Z,91.00
2023-01-21T04:03:40.855Z,91.00
2023-01-21T04:06:08.840Z,91.00
2023-01-21T04:08:35.588Z,91.00
2023-01-21T04:11:02.514Z,90.90
2023-01-21T04:13:29.290Z,91.00
2023-01-21T04:15:56.130Z,91.00
2023-01-21T04:18:25.450Z,91.30
2023-01-21T04:20:52.433Z,91.10
2023-01-21T04:23:19.414Z,91.10
2023-01-21T04:25:49.933Z,91.10
2023-01-21T04:28:16.912Z,91.00
2023-01-21T04:30:43.789Z,91.00
2023-01-21T04:33:10.657Z,91.00
2023-01-21T04:35:37.852Z,91.00
2023-01-21T04:38:04.701Z,91.00
2023-01-21T04:40:31.569Z,91.00
2023-01-21T04:42:58.379Z,91.00
2023-01-21T04:45:25.251Z,91.00
2023-01-21T04:47:52.255Z,91.10
2023-01-21T04:50:19.363Z,91.10
2023-01-21T04:52:46.540Z,91.00
2023-01-21T04:55:13.394Z,91.10
2023-01-21T04:57:40.345Z,91.30
2023-01-21T05:00:08.536Z,91.00
2023-01-21T05:02:35.459Z,91.00
2023-01-21T05:05:02.496Z,91.00
2023-01-21T05:07:29.263Z,91.10
2023-01-21T05:09:56.168Z,91.10
2023-01-21T05:12:22.910Z,91.10
2023-01-21T05:14:57.769Z,91.10
2023-01-21T05:17:27.151Z,91.10
2023-01-21T05:19:54.095Z,91.20
2023-01-21T05:22:20.849Z,91.20
2023-01-21T05:24:53.688Z,91.20
2023-01-21T05:27:27.728Z,91.20
2023-01-21T05:30:04.124Z,91.20
2023-01-21T05:32:40.903Z,91.30
2023-01-21T05:35:08.248Z,91.20
2023-01-21T05:37:35.096Z,91.20
2023-01-21T05:40:01.883Z,91.20
2023-01-21T05:42:28.718Z,91.30
2023-01-21T05:44:55.469Z,91.30
2023-01-21T05:47:22.232Z,91.60
2023-01-21T05:49:48.970Z,91.30
2023-01-21T05:52:15.767Z,91.30
2023-01-21T05:54:59.910Z,91.30
2023-01-21T05:57:28.146Z,91.20
2023-01-21T05:59:54.956Z,91.20
2023-01-21T06:02:21.775Z,91.20
2023-01-21T06:04:48.533Z,91.50
2023-01-21T06:07:15.335Z,91.30
2023-01-21T06:09:42.139Z,91.20
2023-01-21T06:12:08.936Z,91.20
2023-01-21T06:14:35.808Z,91.30
2023-01-21T06:17:02.776Z,91.30
2023-01-21T06:19:29.588Z,91.30
2023-01-21T06:21:56.411Z,91.30
2023-01-21T06:24:23.276Z,91.30
2023-01-21T06:26:50.016Z,91.40
2023-01-21T06:29:16.857Z,91.40
2023-01-21T06:31:43.778Z,91.30
2023-01-21T06:34:12.631Z,91.30
2023-01-21T06:36:42.537Z,91.30
2023-01-21T06:39:12.231Z,91.30
2023-01-21T06:41:39.206Z,91.20
2023-01-21T06:44:06.450Z,91.20
2023-01-21T06:46:33.287Z,91.20
2023-01-21T06:49:00.223Z,91.20
2023-01-21T06:51:27.115Z,91.20
2023-01-21T06:53:54.003Z,91.20
2023-01-21T06:56:21.683Z,91.10
2023-01-21T06:58:48.541Z,91.10
2023-01-21T07:01:15.415Z,91.10
2023-01-21T07:03:43.351Z,91.40
2023-01-21T07:06:10.283Z,91.10
2023-01-21T07:08:37.107Z,91.10
2023-01-21T07:11:04.263Z,91.10
2023-01-21T07:13:31.126Z,91.10
2023-01-21T07:16:01.582Z,91.10
2023-01-21T07:18:28.730Z,91.10
2023-01-21T07:20:55.827Z,91.40
2023-01-21T07:23:22.694Z,91.10
2023-01-21T07:25:49.504Z,91.20
2023-01-21T07:28:16.447Z,91.30
2023-01-21T07:30:43.245Z,91.20
2023-01-21T07:33:10.320Z,91.30
2023-01-21T07:35:37.135Z,91.30
2023-01-21T07:38:03.899Z,91.30
2023-01-21T07:40:30.691Z,91.30
2023-01-21T07:42:57.516Z,91.40
2023-01-21T07:45:24.392Z,91.60
2023-01-21T07:47:51.247Z,91.40
2023-01-21T07:50:18.161Z,91.50
2023-01-21T07:52:44.955Z,91.50
2023-01-21T07:55:12.821Z,91.50
2023-01-21T07:57:39.811Z,91.60
2023-01-21T08:00:07.137Z,91.80
2023-01-21T08:02:38.651Z,91.80
2023-01-21T08:05:06.647Z,91.80
2023-01-21T08:07:33.476Z,91.70
2023-01-21T08:10:00.249Z,91.50
2023-01-21T08:12:27.395Z,91.30
2023-01-21T08:14:54.357Z,91.30
2023-01-21T08:17:21.169Z,91.30
2023-01-21T08:19:47.966Z,91.30
2023-01-21T08:22:14.880Z,91.20
2023-01-21T08:24:41.651Z,91.10
2023-01-21T08:27:08.417Z,91.10
2023-01-21T08:29:35.170Z,91.10
2023-01-21T08:32:02.112Z,91.10
2023-01-21T08:34:28.932Z,91.10
2023-01-21T08:36:55.663Z,91.00
2023-01-21T08:39:22.425Z,91.10
2023-01-21T08:41:49.212Z,91.10
2023-01-21T08:44:16.010Z,91.00
2023-01-21T08:46:42.860Z,91.00
2023-01-21T08:49:09.661Z,91.00
2023-01-21T08:51:36.497Z,91.00
2023-01-21T08:54:06.727Z,90.90
2023-01-21T08:56:33.620Z,90.80
2023-01-21T08:59:00.543Z,90.70
2023-01-21T09:01:27.356Z,90.90
2023-01-21T09:03:55.894Z,90.70
2023-01-21T09:06:22.881Z,90.80
2023-01-21T09:08:49.693Z,90.70
2023-01-21T09:11:16.719Z,90.70
2023-01-21T09:13:46.441Z,90.70
2023-01-21T09:16:15.363Z,90.70
2023-01-21T09:18:42.429Z,90.70
2023-01-21T09:21:09.326Z,90.60
2023-01-21T09:23:36.705Z,90.50
2023-01-21T09:26:03.872Z,90.50
2023-01-21T09:28:31.372Z,90.50
2023-01-21T09:30:59.193Z,90.40
2023-01-21T09:33:26.978Z,90.40
2023-01-21T09:35:57.757Z,90.40
2023-01-21T09:38:25.020Z,90.30
2023-01-21T09:40:51.964Z,90.30
2023-01-21T09:43:27.551Z,90.20
2023-01-21T09:45:56.248Z,90.10
2023-01-21T09:48:29.466Z,90.00
2023-01-21T09:50:56.842Z,90.00
2023-01-21T09:53:32.654Z,89.80
2023-01-21T09:56:01.097Z,89.80
2023-01-21T09:58:35.749Z,89.80
2023-01-21T10:01:32.080Z,89.70
2023-01-21T10:04:01.625Z,89.60
2023-01-21T10:07:07.063Z,89.60
2023-01-21T10:10:07.589Z,89.30
2023-01-21T10:13:14.244Z,89.00
2023-01-21T10:15:46.785Z,88.80
2023-01-21T10:18:21.441Z,88.60
2023-01-21T10:20:56.569Z,88.60
2023-01-21T10:23:43.938Z,88.60
2023-01-21T10:26:12.423Z,88.30
2023-01-21T10:28:43.189Z,88.60
2023-01-21T10:31:24.300Z,87.80
2023-01-21T10:33:51.235Z,87.40
2023-01-21T10:36:57.506Z,87.40
2023-01-21T10:39:36.573Z,87.10
2023-01-21T10:42:21.396Z,86.90
2023-01-21T10:45:08.185Z,86.80
2023-01-21T10:47:59.335Z,86.60
2023-01-21T10:50:40.729Z,86.50
2023-01-21T10:53:41.267Z,86.10
2023-01-21T10:56:19.424Z,85.30
2023-01-21T10:58:52.672Z,84.90
2023-01-21T11:01:30.004Z,84.90
2023-01-21T11:04:03.552Z,84.40
2023-01-21T11:06:32.308Z,83.90
2023-01-21T11:09:02.591Z,83.50
2023-01-21T11:11:34.570Z,83.70
2023-01-21T11:14:01.518Z,82.90
2023-01-21T11:16:46.691Z,82.70
2023-01-21T11:19:18.187Z,82.10
2023-01-21T11:22:01.037Z,82.10
2023-01-21T11:24:28.262Z,82.00
2023-01-21T11:26:56.823Z,82.10
2023-01-21T11:29:24.407Z,81.90
2023-01-21T11:32:18.642Z,81.40
2023-01-21T11:34:49.244Z,80.80
2023-01-21T11:37:24.953Z,80.90
2023-01-21T11:39:59.296Z,80.60
2023-01-21T11:42:26.314Z,80.20
2023-01-21T11:44:57.950Z,80.60
2023-01-21T11:47:48.063Z,80.60
2023-01-21T11:50:26.379Z,80.10
2023-01-21T11:53:11.258Z,80.30
2023-01-21T11:55:51.857Z,79.90
2023-01-21T11:58:32.296Z,79.50
2023-01-21T12:01:00.630Z,79.40
2023-01-21T12:03:57.447Z,78.90
2023-01-21T12:06:27.291Z,78.70
2023-01-21T12:08:56.111Z,78.50
2023-01-21T12:11:24.946Z,77.60
2023-01-21T12:14:30.096Z,77.00
2023-01-21T12:17:01.456Z,76.20
2023-01-21T12:19:54.295Z,75.90
2023-01-21T12:22:44.630Z,74.80
2023-01-21T12:25:17.545Z,74.80
2023-01-21T12:27:55.503Z,73.70
2023-01-21T12:30:31.735Z,73.60
2023-01-21T12:33:19.846Z,72.30
2023-01-21T12:35:49.460Z,71.80
2023-01-21T12:38:18.924Z,71.30
2023-01-21T12:41:23.813Z,70.70
2023-01-21T12:43:52.805Z,69.80
2023-01-21T12:46:25.010Z,69.70
2023-01-21T12:48:52.472Z,68.90
2023-01-21T12:51:29.432Z,68.40
2023-01-21T12:54:04.643Z,67.30
2023-01-21T12:56:40.518Z,66.80
2023-01-21T12:59:29.909Z,66.50
2023-01-21T13:02:05.712Z,65.90
2023-01-21T13:04:56.539Z,65.70
2023-01-21T13:07:47.500Z,65.00
2023-01-21T13:10:15.771Z,64.60
2023-01-21T13:12:43.837Z,64.00
2023-01-21T13:15:14.883Z,63.10
2023-01-21T13:17:43.080Z,62.20
2023-01-21T13:20:20.168Z,62.50
2023-01-21T13:23:16.597Z,61.30
2023-01-21T13:26:10.972Z,61.10
2023-01-21T13:28:52.975Z,60.90
2023-01-21T13:31:34.976Z,60.60
2023-01-21T13:34:08.173Z,60.10
2023-01-21T13:36:35.299Z,60.20
2023-01-21T13:39:20.835Z,60.50
2023-01-21T13:42:03.642Z,60.00
2023-01-21T13:44:54.649Z,59.90
2023-01-21T13:48:03.365Z,59.50
2023-01-21T13:50:46.462Z,59.20
2023-01-21T13:53:35.044Z,59.10
2023-01-21T13:56:39.085Z,58.70
2023-01-21T13:59:31.674Z,58.30
2023-01-21T14:02:19.484Z,58.60
2023-01-21T14:04:51.079Z,58.20
2023-01-21T14:07:37.816Z,58.10
2023-01-21T14:10:21.124Z,57.40
2023-01-21T14:13:22.284Z,57.60
2023-01-21T14:16:07.964Z,57.30
2023-01-21T14:19:05.513Z,57.30
2023-01-21T14:21:41.275Z,56.90
2023-01-21T14:24:45.872Z,57.00
2023-01-21T14:27:21.590Z,56.80
2023-01-21T14:29:59.088Z,57.10
2023-01-21T14:32:36.771Z,56.90
2023-01-21T14:35:13.859Z,56.80
2023-01-21T14:38:03.132Z,57.10
2023-01-21T14:40:34.004Z,57.10
2023-01-21T14:43:00.897Z,57.50
2023-01-21T14:45:49.636Z,57.80
2023-01-21T14:48:28.335Z,57.70
2023-01-21T14:50:55.763Z,58.10
2023-01-21T14:53:25.059Z,58.50
2023-01-21T14:56:20.117Z,58.30
2023-01-21T14:58:48.124Z,58.50
2023-01-21T15:01:31.618Z,58.70
2023-01-21T15:04:04.352Z,58.20
2023-01-21T15:06:31.210Z,58.40
2023-01-21T15:08:59.290Z,59.20
2023-01-21T15:11:36.070Z,59.90
2023-01-21T15:14:23.806Z,60.30
2023-01-21T15:16:51.234Z,61.00
2023-01-21T15:19:47.168Z,61.50
2023-01-21T15:22:19.119Z,61.90
2023-01-21T15:25:03.390Z,62.20
2023-01-21T15:27:31.845Z,62.50
2023-01-21T15:29:58.923Z,63.00
2023-01-21T15:32:35.046Z,63.50
2023-01-21T15:35:04.617Z,63.60
2023-01-21T15:37:33.405Z,63.80
2023-01-21T15:40:02.219Z,63.90
2023-01-21T15:42:48.726Z,64.00
2023-01-21T15:45:30.263Z,64.10
2023-01-21T15:48:40.941Z,64.50
2023-01-21T15:51:46.896Z,65.00
2023-01-21T15:54:25.600Z,65.20
2023-01-21T15:57:34.033Z,65.40
2023-01-21T16:00:07.565Z,65.60
2023-01-21T16:02:54.464Z,66.00
2023-01-21T16:05:29.840Z,66.70
2023-01-21T16:08:26.326Z,66.70
2023-01-21T16:11:17.286Z,67.10
2023-01-21T16:14:19.506Z,67.50
2023-01-21T16:16:54.964Z,67.90
2023-01-21T16:19:25.979Z,68.30
2023-01-21T16:21:55.015Z,68.60
2023-01-21T16:24:24.861Z,68.80
2023-01-21T16:26:51.748Z,69.00
2023-01-21T16:29:18.517Z,69.10
2023-01-21T16:31:47.134Z,69.40
2023-01-21T16:34:14.071Z,69.50
2023-01-21T16:36:40.946Z,70.00
2023-01-21T16:39:07.937Z,70.40
2023-01-21T16:41:34.711Z,70.90
2023-01-21T16:44:04.890Z,71.20
2023-01-21T16:46:37.548Z,71.60
2023-01-21T16:49:12.251Z,71.90
2023-01-21T16:51:40.572Z,71.90
2023-01-21T16:54:19.608Z,72.20
2023-01-21T16:56:55.681Z,73.00
2023-01-21T16:59:44.598Z,73.20
2023-01-21T17:02:37.743Z,73.30
2023-01-21T17:05:05.273Z,73.70
2023-01-21T17:07:43.837Z,73.80
2023-01-21T17:10:34.787Z,74.30
2023-01-21T17:13:13.942Z,74.40
2023-01-21T17:15:41.787Z,74.40
2023-01-21T17:18:32.856Z,75.10
2023-01-21T17:21:10.624Z,74.60
2023-01-21T17:23:46.811Z,74.80
2023-01-21T17:26:25.681Z,75.10
2023-01-21T17:29:07.740Z,75.10
2023-01-21T17:31:42.347Z,75.30
2023-01-21T17:34:15.491Z,75.50
2023-01-21T17:36:43.944Z,75.70
2023-01-21T17:39:10.995Z,76.10
2023-01-21T17:41:41.025Z,76.30
2023-01-21T17:44:21.805Z,76.20
2023-01-21T17:46:52.773Z,76.50
2023-01-21T17:49:23.853Z,77.30
2023-01-21T17:51:51.499Z,77.20
2023-01-21T17:54:29.255Z,78.00
2023-01-21T17:56:59.592Z,77.40
2023-01-21T17:59:37.759Z,77.70
2023-01-21T18:02:06.423Z,78.30
2023-01-21T18:04:33.161Z,78.70
2023-01-21T18:06:59.996Z,78.80
2023-01-21T18:09:28.252Z,78.90
2023-01-21T18:11:56.283Z,78.80
2023-01-21T18:14:24.491Z,78.90
2023-01-21T18:16:53.383Z,78.90
2023-01-21T18:19:27.418Z,78.90
2023-01-21T18:21:54.498Z,78.90
2023-01-21T18:24:21.493Z,79.00
2023-01-21T18:26:48.439Z,79.00
2023-01-21T18:29:17.159Z,79.10
2023-01-21T18:31:44.233Z,79.40
2023-01-21T18:34:11.335Z,79.70
2023-01-21T18:36:39.323Z,79.80
2023-01-21T18:39:15.434Z,80.10
2023-01-21T18:41:42.304Z,80.40
2023-01-21T18:44:09.071Z,80.40
2023-01-21T18:46:41.421Z,81.00
2023-01-21T18:49:16.367Z,80.60
2023-01-21T18:51:43.663Z,80.70
2023-01-21T18:54:11.058Z,80.70
2023-01-21T18:56:37.873Z,80.80
2023-01-21T18:59:13.757Z,80.90
2023-01-21T19:01:41.389Z,81.10
2023-01-21T19:04:09.788Z,81.30
2023-01-21T19:06:36.749Z,81.40
2023-01-21T19:09:03.883Z,81.60
2023-01-21T19:11:30.679Z,81.60
2023-01-21T19:13:57.417Z,81.60
2023-01-21T19:16:24.232Z,81.60
2023-01-21T19:18:51.043Z,82.10
2023-01-21T19:21:17.892Z,81.50
2023-01-21T19:23:44.747Z,81.60
2023-01-21T19:26:13.733Z,81.80
2023-01-21T19:28:40.613Z,81.90
2023-01-21T19:31:07.487Z,82.00
2023-01-21T19:33:34.406Z,82.20
2023-01-21T19:36:10.472Z,82.30
2023-01-21T19:38:37.224Z,82.30
2023-01-21T19:41:05.454Z,82.40
2023-01-21T19:43:32.524Z,82.50
2023-01-21T19:45:59.355Z,82.50
2023-01-21T19:48:27.334Z,82.60
2023-01-21T19:50:54.156Z,82.60
2023-01-21T19:53:22.243Z,82.70
2023-01-21T19:55:51.731Z,83.40
2023-01-21T19:58:20.159Z,82.90
2023-01-21T20:00:49.126Z,82.80
2023-01-21T20:03:20.198Z,83.00
2023-01-21T20:05:48.196Z,83.10
2023-01-21T20:08:26.061Z,83.10
2023-01-21T20:10:52.854Z,83.30
2023-01-21T20:13:19.835Z,83.30
2023-01-21T20:15:47.283Z,83.50
2023-01-21T20:18:24.585Z,83.60
2023-01-21T20:20:52.131Z,83.70
2023-01-21T20:23:19.480Z,83.70
2023-01-21T20:25:48.219Z,83.60
2023-01-21T20:28:18.360Z,84.20
2023-01-21T20:30:45.333Z,83.70
2023-01-21T20:33:14.073Z,83.70
2023-01-21T20:35:40.831Z,83.70
2023-01-21T20:38:12.395Z,83.70
2023-01-21T20:40:39.218Z,83.70
2023-01-21T20:43:06.038Z,83.70
2023-01-21T20:45:35.658Z,83.90
2023-01-21T20:48:02.618Z,83.90
2023-01-21T20:50:33.542Z,84.00
2023-01-21T20:53:00.332Z,84.10
2023-01-21T20:55:27.725Z,84.20
2023-01-21T20:57:54.595Z,84.40
2023-01-21T21:00:26.777Z,84.50
2023-01-21T21:02:55.760Z,84.40
2023-01-21T21:05:23.871Z,84.90
2023-01-21T21:07:50.809Z,84.40
2023-01-21T21:10:22.671Z,84.40
2023-01-21T21:12:49.688Z,85.00
2023-01-21T21:15:17.063Z,84.60
2023-01-21T21:17:44.716Z,84.50
2023-01-21T21:20:19.817Z,84.60
2023-01-21T21:22:47.077Z,84.80
2023-01-21T21:25:18.473Z,85.00
2023-01-21T21:27:45.869Z,85.00
2023-01-21T21:30:16.278Z,85.00
2023-01-21T21:32:43.085Z,85.10
2023-01-21T21:35:26.075Z,85.10
2023-01-21T21:37:53.518Z,85.30
2023-01-21T21:40:38.394Z,85.20
2023-01-21T21:43:23.841Z,85.30
2023-01-21T21:46:09.158Z,85.30
2023-01-21T21:48:38.722Z,85.30
2023-01-21T21:51:06.815Z,85.30
2023-01-21T21:53:33.686Z,85.40
2023-01-21T21:56:06.026Z,85.40
2023-01-21T21:58:32.950Z,85.50
2023-01-21T22:01:19.557Z,85.50
2023-01-21T22:03:46.886Z,86.00
2023-01-21T22:06:13.777Z,85.40
2023-01-21T22:08:42.085Z,85.50
2023-01-21T22:11:10.372Z,85.60
2023-01-21T22:13:38.268Z,85.60
2023-01-21T22:16:05.465Z,85.60
2023-01-21T22:18:33.839Z,85.50
2023-01-21T22:21:23.409Z,85.50
2023-01-21T22:23:50.351Z,85.60
2023-01-21T22:26:19.542Z,85.50
2023-01-21T22:28:46.611Z,85.40
2023-01-21T22:31:17.235Z,85.60
2023-01-21T22:33:44.206Z,85.80
2023-01-21T22:36:15.844Z,85.90
2023-01-21T22:38:42.807Z,86.10
2023-01-21T22:41:10.427Z,86.20
2023-01-21T22:43:38.678Z,86.10
2023-01-21T22:46:05.610Z,86.10
2023-01-21T22:48:32.524Z,86.20
2023-01-21T22:50:59.989Z,86.20
2023-01-21T22:53:27.218Z,86.20
2023-01-21T22:56:01.289Z,86.30
2023-01-21T22:58:28.809Z,86.40
2023-01-21T23:00:55.937Z,86.30
2023-01-21T23:03:23.251Z,86.30
2023-01-21T23:05:50.237Z,86.20
2023-01-21T23:08:17.443Z,86.10
2023-01-21T23:10:44.741Z,86.10
2023-01-21T23:13:14.992Z,86.10
2023-01-21T23:15:45.864Z,86.20
2023-01-21T23:18:13.556Z,86.20
2023-01-21T23:20:42.006Z,86.30
2023-01-21T23:23:11.677Z,86.40
2023-01-21T23:25:42.243Z,86.40
2023-01-21T23:28:09.377Z,86.30
2023-01-21T23:30:37.408Z,86.30
2023-01-21T23:33:04.270Z,86.30
2023-01-21T23:35:31.966Z,86.50
2023-01-21T23:38:00.397Z,86.50
2023-01-21T23:40:27.122Z,86.50
2023-01-21T23:42:54.034Z,86.50
2023-01-21T23:45:20.791Z,86.70
2023-01-21T23:47:47.647Z,86.80
2023-01-21T23:50:14.605Z,87.50
2023-01-21T23:52:41.479Z,87.00
2023-01-21T23:55:09.146Z,87.00
2023-01-21T23:57:36.053Z,86.90
